createdAt,value
2022-12-01T00:00:23.824Z,37.52
2022-12-01T00:00:55.223Z,37.24
2022-12-01T00:01:26.618Z,37.31
2022-12-01T00:01:58.209Z,37.19
2022-12-01T00:02:29.762Z,37.11
2022-12-01T00:03:01.302Z,37.60
2022-12-01T00:03:32.766Z,37.23
2022-12-01T00:04:04.167Z,37.31
2022-12-01T00:04:35.574Z,37.30
2022-12-01T00:05:07.084Z,37.12
2022-12-01T00:05:38.474Z,37.23
2022-12-01T00:06:09.868Z,37.22
2022-12-01T00:06:41.259Z,37.24
2022-12-01T00:07:12.670Z,37.54
2022-12-01T00:07:44.088Z,37.37
2022-12-01T00:08:15.599Z,37.00
2022-12-01T00:08:46.992Z,37.28
2022-12-01T00:09:20.217Z,37.30
2022-12-01T00:09:51.827Z,37.43
2022-12-01T00:10:23.315Z,37.40
2022-12-01T00:10:54.706Z,37.57
2022-12-01T00:11:26.100Z,37.33
2022-12-01T00:11:57.491Z,37.53
2022-12-01T00:12:28.900Z,37.25
2022-12-01T00:13:00.306Z,37.34
2022-12-01T00:13:31.699Z,37.40
2022-12-01T00:14:03.105Z,37.53
2022-12-01T00:14:34.521Z,36.81
2022-12-01T00:15:05.915Z,37.11
2022-12-01T00:15:37.454Z,37.44
2022-12-01T00:16:08.962Z,37.59
2022-12-01T00:16:40.530Z,37.61
2022-12-01T00:17:12.007Z,37.27
2022-12-01T00:17:43.423Z,37.03
2022-12-01T00:18:14.805Z,37.58
2022-12-01T00:18:46.207Z,37.12
2022-12-01T00:19:17.614Z,37.21
2022-12-01T00:19:49.319Z,37.42
2022-12-01T00:20:20.925Z,37.36
2022-12-01T00:20:52.459Z,37.60
2022-12-01T00:21:23.851Z,37.67
2022-12-01T00:21:55.254Z,37.47
2022-12-01T00:22:26.643Z,37.45
2022-12-01T00:22:58.058Z,37.36
2022-12-01T00:23:29.481Z,37.47
2022-12-01T00:24:00.867Z,37.21
2022-12-01T00:24:32.256Z,37.60
2022-12-01T00:25:03.651Z,37.33
2022-12-01T00:25:35.041Z,37.32
2022-12-01T00:26:06.510Z,37.48
2022-12-01T00:26:37.902Z,37.40
2022-12-01T00:27:09.397Z,37.54
2022-12-01T00:27:40.854Z,37.62
2022-12-01T00:28:12.265Z,37.15
2022-12-01T00:28:43.655Z,37.71
2022-12-01T00:29:15.044Z,37.62
2022-12-01T00:29:46.670Z,37.07
2022-12-01T00:30:18.271Z,36.99
2022-12-01T00:30:49.663Z,37.49
2022-12-01T00:31:21.243Z,37.33
2022-12-01T00:31:52.773Z,37.07
2022-12-01T00:32:24.216Z,37.49
2022-12-01T00:32:55.624Z,37.53
2022-12-01T00:33:27.019Z,37.36
2022-12-01T00:33:58.411Z,37.72
2022-12-01T00:34:29.799Z,36.80
2022-12-01T00:35:01.182Z,37.31
2022-12-01T00:35:32.577Z,37.14
2022-12-01T00:36:03.973Z,37.70
2022-12-01T00:36:35.440Z,37.65
2022-12-01T00:37:06.834Z,37.66
2022-12-01T00:37:38.227Z,38.07
2022-12-01T00:38:09.614Z,37.26
2022-12-01T00:38:41.011Z,37.53
2022-12-01T00:39:12.411Z,37.13
2022-12-01T00:39:43.800Z,37.58
2022-12-01T00:40:15.191Z,37.56
2022-12-01T00:40:46.603Z,37.55
2022-12-01T00:41:18.014Z,37.54
2022-12-01T00:41:49.497Z,37.35
2022-12-01T00:42:20.887Z,37.47
2022-12-01T00:42:52.277Z,37.05
2022-12-01T00:43:23.667Z,37.62
2022-12-01T00:43:55.063Z,37.48
2022-12-01T00:44:26.446Z,37.14
2022-12-01T00:44:57.843Z,37.33
2022-12-01T00:45:29.256Z,37.53
2022-12-01T00:46:00.685Z,37.65
2022-12-01T00:46:32.289Z,37.39
2022-12-01T00:47:03.763Z,37.55
2022-12-01T00:47:35.159Z,37.83
2022-12-01T00:48:06.552Z,37.56
2022-12-01T00:48:37.945Z,37.74
2022-12-01T00:49:09.353Z,37.67
2022-12-01T00:49:40.756Z,37.62
2022-12-01T00:50:12.147Z,37.54
2022-12-01T00:50:43.563Z,37.36
2022-12-01T00:51:15.085Z,37.34
2022-12-01T00:51:46.603Z,37.27
2022-12-01T00:52:17.994Z,37.96
2022-12-01T00:52:49.393Z,37.54
2022-12-01T00:53:20.790Z,37.66
2022-12-01T00:53:52.174Z,37.17
2022-12-01T00:54:23.563Z,37.34
2022-12-01T00:54:54.961Z,37.65
2022-12-01T00:55:26.361Z,37.50
2022-12-01T00:55:57.747Z,37.21
2022-12-01T00:56:29.156Z,37.25
2022-12-01T00:57:00.647Z,37.70
2022-12-01T00:57:32.069Z,37.60
2022-12-01T00:58:03.466Z,37.92
2022-12-01T00:58:34.873Z,37.40
2022-12-01T00:59:06.259Z,37.80
2022-12-01T00:59:37.671Z,37.86
2022-12-01T01:00:09.068Z,37.79
2022-12-01T01:00:40.459Z,37.36
2022-12-01T01:01:11.929Z,37.71
2022-12-01T01:01:43.416Z,37.74
2022-12-01T01:02:14.944Z,37.50
2022-12-01T01:02:46.485Z,37.51
2022-12-01T01:03:17.923Z,37.40
2022-12-01T01:03:49.314Z,37.46
2022-12-01T01:04:20.712Z,37.75
2022-12-01T01:04:52.098Z,37.65
2022-12-01T01:05:23.497Z,37.70
2022-12-01T01:05:54.903Z,37.35
2022-12-01T01:06:26.307Z,37.79
2022-12-01T01:06:57.700Z,37.87
2022-12-01T01:07:29.202Z,37.75
2022-12-01T01:08:00.682Z,37.87
2022-12-01T01:08:32.096Z,37.81
2022-12-01T01:09:03.529Z,37.32
2022-12-01T01:09:34.932Z,37.98
2022-12-01T01:10:06.321Z,37.83
2022-12-01T01:10:37.716Z,37.69
2022-12-01T01:11:09.109Z,37.58
2022-12-01T01:11:40.504Z,37.82
2022-12-01T01:12:11.894Z,37.82
2022-12-01T01:12:43.318Z,37.48
2022-12-01T01:13:14.727Z,37.79
2022-12-01T01:13:46.158Z,37.56
2022-12-01T01:14:17.568Z,37.59
2022-12-01T01:14:48.983Z,37.23
2022-12-01T01:15:20.421Z,37.71
2022-12-01T01:15:51.812Z,37.42
2022-12-01T01:16:23.297Z,37.85
2022-12-01T01:16:54.763Z,37.45
2022-12-01T01:17:26.221Z,37.54
2022-12-01T01:17:57.663Z,37.73
2022-12-01T01:18:29.067Z,37.45
2022-12-01T01:19:00.455Z,37.74
2022-12-01T01:19:31.860Z,37.42
2022-12-01T01:20:03.251Z,37.27
2022-12-01T01:20:34.648Z,37.28
2022-12-01T01:21:06.064Z,37.17
2022-12-01T01:21:37.459Z,37.57
2022-12-01T01:22:08.858Z,37.46
2022-12-01T01:22:40.248Z,37.45
2022-12-01T01:23:11.691Z,37.55
2022-12-01T01:23:43.079Z,37.68
2022-12-01T01:24:14.462Z,37.58
2022-12-01T01:24:45.854Z,37.37
2022-12-01T01:25:17.254Z,37.89
2022-12-01T01:25:48.646Z,38.10
2022-12-01T01:26:20.072Z,37.79
2022-12-01T01:26:51.463Z,37.28
2022-12-01T01:27:22.858Z,37.48
2022-12-01T01:27:54.258Z,37.78
2022-12-01T01:28:25.726Z,37.42
2022-12-01T01:28:57.129Z,37.73
2022-12-01T01:29:28.528Z,37.48
2022-12-01T01:29:59.932Z,37.48
2022-12-01T01:30:31.347Z,37.18
2022-12-01T01:31:02.863Z,37.76
2022-12-01T01:31:34.346Z,37.67
2022-12-01T01:32:05.729Z,37.39
2022-12-01T01:32:37.114Z,37.92
2022-12-01T01:33:08.522Z,37.62
2022-12-01T01:33:39.935Z,37.60
2022-12-01T01:34:11.326Z,37.76
2022-12-01T01:34:42.713Z,37.75
2022-12-01T01:35:14.142Z,37.60
2022-12-01T01:35:45.543Z,37.64
2022-12-01T01:36:16.927Z,37.60
2022-12-01T01:36:48.318Z,37.75
2022-12-01T01:37:19.715Z,37.66
2022-12-01T01:37:51.107Z,37.68
2022-12-01T01:38:22.514Z,37.93
2022-12-01T01:38:53.938Z,37.40
2022-12-01T01:39:25.332Z,37.85
2022-12-01T01:39:56.724Z,37.89
2022-12-01T01:40:28.115Z,37.36
2022-12-01T01:40:59.504Z,37.60
2022-12-01T01:41:30.898Z,37.35
2022-12-01T01:42:02.292Z,37.57
2022-12-01T01:42:33.692Z,37.71
2022-12-01T01:43:05.084Z,37.66
2022-12-01T01:43:36.471Z,37.37
2022-12-01T01:44:07.918Z,37.47
2022-12-01T01:44:39.315Z,37.91
2022-12-01T01:45:10.719Z,37.61
2022-12-01T01:45:42.155Z,37.53
2022-12-01T01:46:13.704Z,37.75
2022-12-01T01:46:45.190Z,37.78
2022-12-01T01:47:16.590Z,37.80
2022-12-01T01:47:47.991Z,37.61
2022-12-01T01:48:19.387Z,37.44
2022-12-01T01:48:50.856Z,37.82
2022-12-01T01:49:22.249Z,37.32
2022-12-01T01:49:53.643Z,37.76
2022-12-01T01:50:25.048Z,37.60
2022-12-01T01:50:56.440Z,37.73
2022-12-01T01:51:27.831Z,37.47
2022-12-01T01:51:59.263Z,37.62
2022-12-01T01:52:30.649Z,37.93
2022-12-01T01:53:02.063Z,37.45
2022-12-01T01:53:33.451Z,37.63
2022-12-01T01:54:04.858Z,37.67
2022-12-01T01:54:36.248Z,37.80
2022-12-01T01:55:07.634Z,37.63
2022-12-01T01:55:39.024Z,37.52
2022-12-01T01:56:10.430Z,37.47
2022-12-01T01:56:41.836Z,37.91
2022-12-01T01:57:13.239Z,37.72
2022-12-01T01:57:44.627Z,37.89
2022-12-01T01:58:16.020Z,37.62
2022-12-01T01:58:47.571Z,37.44
2022-12-01T01:59:19.047Z,37.48
2022-12-01T01:59:50.736Z,37.81
2022-12-01T02:00:22.338Z,37.33
2022-12-01T02:00:53.730Z,37.49
2022-12-01T02:01:25.166Z,37.40
2022-12-01T02:01:56.579Z,37.45
2022-12-01T02:02:28.019Z,37.44
2022-12-01T02:02:59.505Z,38.01
2022-12-01T02:03:30.956Z,37.62
2022-12-01T02:04:02.386Z,37.20
2022-12-01T02:04:33.774Z,37.49
2022-12-01T02:05:05.174Z,37.58
2022-12-01T02:05:36.582Z,37.58
2022-12-01T02:06:07.974Z,37.22
2022-12-01T02:06:39.373Z,37.22
2022-12-01T02:07:10.765Z,37.54
2022-12-01T02:07:42.219Z,38.08
2022-12-01T02:08:13.658Z,37.77
2022-12-01T02:08:45.059Z,37.41
2022-12-01T02:09:16.499Z,37.84
2022-12-01T02:09:48.306Z,37.48
2022-12-01T02:10:19.912Z,37.59
2022-12-01T02:10:51.324Z,37.51
2022-12-01T02:11:22.730Z,37.44
2022-12-01T02:11:54.116Z,37.20
2022-12-01T02:12:25.505Z,37.31
2022-12-01T02:12:56.898Z,37.17
2022-12-01T02:13:28.300Z,38.00
2022-12-01T02:13:59.704Z,37.69
2022-12-01T02:14:31.232Z,37.56
2022-12-01T02:15:02.629Z,37.67
2022-12-01T02:15:34.042Z,37.63
2022-12-01T02:16:05.435Z,37.80
2022-12-01T02:16:36.874Z,37.82
2022-12-01T02:17:08.363Z,37.47
2022-12-01T02:17:41.863Z,37.58
2022-12-01T02:18:13.519Z,37.70
2022-12-01T02:18:44.906Z,37.67
2022-12-01T02:19:16.294Z,37.19
2022-12-01T02:19:47.876Z,37.63
2022-12-01T02:20:19.493Z,37.75
2022-12-01T02:20:50.882Z,37.70
2022-12-01T02:21:22.272Z,37.62
2022-12-01T02:21:53.679Z,37.76
2022-12-01T02:22:25.063Z,37.80
2022-12-01T02:22:56.454Z,37.67
2022-12-01T02:23:27.838Z,37.84
2022-12-01T02:23:59.303Z,37.72
2022-12-01T02:24:30.713Z,37.92
2022-12-01T02:25:02.218Z,37.73
2022-12-01T02:25:33.634Z,37.76
2022-12-01T02:26:05.045Z,37.57
2022-12-01T02:26:36.439Z,37.59
2022-12-01T02:27:07.836Z,37.60
2022-12-01T02:27:39.228Z,37.66
2022-12-01T02:28:10.620Z,37.70
2022-12-01T02:28:42.013Z,37.86
2022-12-01T02:29:13.408Z,37.37
2022-12-01T02:29:44.811Z,37.74
2022-12-01T02:30:16.272Z,37.86
2022-12-01T02:30:47.710Z,37.41
2022-12-01T02:31:19.175Z,37.28
2022-12-01T02:31:50.603Z,37.84
2022-12-01T02:32:21.991Z,37.34
2022-12-01T02:32:53.418Z,37.60
2022-12-01T02:33:24.843Z,37.73
2022-12-01T02:33:56.236Z,37.78
2022-12-01T02:34:27.635Z,37.93
2022-12-01T02:34:59.037Z,37.83
2022-12-01T02:35:30.468Z,37.21
2022-12-01T02:36:01.862Z,37.69
2022-12-01T02:36:33.256Z,37.88
2022-12-01T02:37:04.651Z,37.87
2022-12-01T02:37:36.042Z,37.81
2022-12-01T02:38:07.433Z,37.56
2022-12-01T02:38:38.823Z,37.84
2022-12-01T02:39:10.228Z,37.81
2022-12-01T02:39:41.620Z,37.92
2022-12-01T02:40:13.016Z,37.60
2022-12-01T02:40:44.594Z,37.37
2022-12-01T02:41:15.998Z,37.70
2022-12-01T02:41:47.384Z,37.42
2022-12-01T02:42:18.773Z,37.33
2022-12-01T02:42:50.180Z,37.67
2022-12-01T02:43:21.592Z,37.59
2022-12-01T02:43:52.998Z,37.61
2022-12-01T02:44:24.399Z,37.63
2022-12-01T02:44:55.792Z,37.58
2022-12-01T02:45:27.183Z,37.42
2022-12-01T02:45:58.692Z,37.75
2022-12-01T02:46:30.220Z,37.35
2022-12-01T02:47:01.654Z,37.50
2022-12-01T02:47:33.038Z,37.73
2022-12-01T02:48:04.422Z,37.46
2022-12-01T02:48:35.840Z,37.46
2022-12-01T02:49:07.242Z,37.55
2022-12-01T02:49:38.634Z,37.89
2022-12-01T02:50:10.044Z,37.38
2022-12-01T02:50:41.458Z,37.56
2022-12-01T02:51:12.914Z,37.42
2022-12-01T02:51:44.299Z,37.50
2022-12-01T02:52:15.702Z,37.77
2022-12-01T02:52:47.088Z,37.81
2022-12-01T02:53:18.492Z,37.51
2022-12-01T02:53:49.887Z,37.69
2022-12-01T02:54:21.279Z,37.70
2022-12-01T02:54:52.693Z,37.82
2022-12-01T02:55:24.094Z,37.43
2022-12-01T02:55:55.486Z,37.75
2022-12-01T02:56:26.998Z,37.94
2022-12-01T02:56:58.389Z,37.35
2022-12-01T02:57:29.795Z,37.35
2022-12-01T02:58:01.191Z,37.93
2022-12-01T02:58:32.599Z,37.71
2022-12-01T02:59:03.984Z,37.76
2022-12-01T02:59:35.371Z,37.34
2022-12-01T03:00:06.756Z,37.60
2022-12-01T03:00:38.140Z,37.75
2022-12-01T03:01:09.780Z,37.70
2022-12-01T03:01:41.491Z,37.59
2022-12-01T03:02:12.975Z,37.30
2022-12-01T03:02:44.505Z,37.91
2022-12-01T03:03:15.943Z,38.00
2022-12-01T03:03:47.340Z,37.87
2022-12-01T03:04:18.752Z,37.81
2022-12-01T03:04:50.143Z,37.69
2022-12-01T03:05:21.607Z,37.70
2022-12-01T03:05:53.003Z,37.35
2022-12-01T03:06:24.399Z,37.87
2022-12-01T03:06:55.932Z,37.64
2022-12-01T03:07:27.361Z,37.72
2022-12-01T03:07:58.782Z,37.85
2022-12-01T03:08:30.175Z,37.47
2022-12-01T03:09:01.526Z,37.60
2022-12-01T03:09:32.918Z,37.32
2022-12-01T03:10:04.304Z,37.86
2022-12-01T03:10:35.694Z,37.49
2022-12-01T03:11:07.088Z,37.61
2022-12-01T03:11:38.547Z,37.74
2022-12-01T03:12:10.102Z,37.84
2022-12-01T03:12:41.486Z,37.83
2022-12-01T03:13:12.866Z,37.79
2022-12-01T03:13:44.255Z,37.31
2022-12-01T03:14:15.642Z,37.46
2022-12-01T03:14:47.035Z,37.86
2022-12-01T03:15:18.423Z,37.82
2022-12-01T03:15:49.848Z,38.02
2022-12-01T03:16:21.401Z,37.90
2022-12-01T03:16:52.870Z,37.41
2022-12-01T03:17:24.362Z,37.32
2022-12-01T03:17:55.775Z,37.39
2022-12-01T03:18:27.174Z,37.62
2022-12-01T03:18:58.573Z,37.43
2022-12-01T03:19:29.974Z,37.34
2022-12-01T03:20:01.371Z,37.58
2022-12-01T03:20:32.795Z,37.71
2022-12-01T03:21:04.183Z,37.84
2022-12-01T03:21:35.592Z,37.50
2022-12-01T03:22:06.990Z,37.33
2022-12-01T03:22:38.512Z,37.67
2022-12-01T03:23:09.914Z,37.81
2022-12-01T03:23:41.318Z,37.64
2022-12-01T03:24:12.713Z,37.75
2022-12-01T03:24:44.118Z,37.54
2022-12-01T03:25:15.519Z,37.61
2022-12-01T03:25:46.928Z,37.58
2022-12-01T03:26:18.311Z,37.87
2022-12-01T03:26:49.714Z,37.26
2022-12-01T03:27:21.109Z,37.92
2022-12-01T03:28:19.807Z,37.57
2022-12-01T03:28:43.950Z,37.46
2022-12-01T03:29:15.334Z,37.33
2022-12-01T03:29:46.972Z,37.48
2022-12-01T03:30:18.525Z,37.60
2022-12-01T03:30:49.947Z,37.24
2022-12-01T03:31:21.416Z,37.45
2022-12-01T03:31:52.828Z,37.48
2022-12-01T03:32:24.230Z,37.29
2022-12-01T03:32:55.659Z,37.90
2022-12-01T03:33:27.050Z,37.38
2022-12-01T03:33:58.443Z,37.48
2022-12-01T03:34:29.843Z,37.64
2022-12-01T03:35:01.240Z,37.78
2022-12-01T03:35:32.689Z,37.62
2022-12-01T03:36:04.107Z,37.61
2022-12-01T03:36:35.511Z,37.61
2022-12-01T03:37:06.962Z,37.32
2022-12-01T03:37:38.373Z,37.38
2022-12-01T03:38:09.848Z,37.28
2022-12-01T03:38:41.240Z,37.56
2022-12-01T03:39:12.649Z,37.60
2022-12-01T03:39:44.039Z,37.48
2022-12-01T03:40:15.430Z,37.61
2022-12-01T03:40:46.817Z,37.21
2022-12-01T03:41:18.204Z,37.32
2022-12-01T03:41:49.679Z,37.54
2022-12-01T03:42:21.067Z,37.73
2022-12-01T03:42:52.459Z,37.81
2022-12-01T03:43:24.012Z,37.58
2022-12-01T03:43:55.399Z,37.55
2022-12-01T03:44:26.787Z,37.79
2022-12-01T03:44:58.171Z,37.93
2022-12-01T03:45:29.558Z,37.44
2022-12-01T03:46:01.005Z,37.23
2022-12-01T03:46:32.515Z,37.82
2022-12-01T03:47:03.964Z,37.52
2022-12-01T03:47:35.355Z,37.76
2022-12-01T03:48:06.743Z,37.33
2022-12-01T03:48:38.251Z,37.81
2022-12-01T03:49:09.658Z,37.29
2022-12-01T03:49:41.056Z,37.43
2022-12-01T03:50:12.472Z,37.59
2022-12-01T03:50:43.854Z,37.59
2022-12-01T03:51:15.256Z,37.60
2022-12-01T03:51:46.651Z,37.44
2022-12-01T03:52:18.042Z,37.67
2022-12-01T03:52:49.440Z,37.75
2022-12-01T03:53:20.832Z,37.86
2022-12-01T03:53:52.315Z,37.71
2022-12-01T03:54:23.705Z,37.19
2022-12-01T03:54:55.095Z,37.85
2022-12-01T03:55:26.489Z,37.56
2022-12-01T03:55:57.879Z,37.30
2022-12-01T03:56:29.294Z,37.59
2022-12-01T03:57:00.677Z,37.59
2022-12-01T03:57:32.069Z,37.53
2022-12-01T03:58:03.460Z,37.91
2022-12-01T03:58:34.861Z,37.43
2022-12-01T03:59:06.404Z,37.71
2022-12-01T03:59:37.790Z,37.58
2022-12-01T04:00:09.398Z,37.61
2022-12-01T04:00:40.787Z,37.64
2022-12-01T04:01:12.191Z,37.94
2022-12-01T04:01:43.646Z,37.39
2022-12-01T04:02:15.293Z,37.77
2022-12-01T04:02:46.695Z,37.82
2022-12-01T04:03:18.203Z,38.01
2022-12-01T04:03:49.650Z,37.80
2022-12-01T04:04:21.164Z,37.31
2022-12-01T04:04:52.574Z,37.81
2022-12-01T04:05:25.476Z,37.62
2022-12-01T04:05:57.036Z,37.59
2022-12-01T04:06:28.429Z,37.96
2022-12-01T04:06:59.823Z,37.73
2022-12-01T04:07:31.250Z,37.40
2022-12-01T04:08:02.771Z,37.39
2022-12-01T04:08:34.217Z,37.50
2022-12-01T04:09:05.612Z,37.63
2022-12-01T04:09:37.074Z,37.81
2022-12-01T04:10:08.468Z,37.23
2022-12-01T04:10:41.614Z,37.65
2022-12-01T04:11:13.004Z,37.62
2022-12-01T04:11:44.425Z,37.60
2022-12-01T04:12:15.831Z,37.97
2022-12-01T04:12:47.228Z,37.40
2022-12-01T04:13:18.618Z,37.85
2022-12-01T04:13:50.033Z,37.89
2022-12-01T04:14:21.519Z,37.40
2022-12-01T04:14:52.908Z,37.46
2022-12-01T04:15:24.294Z,37.67
2022-12-01T04:15:55.749Z,37.36
2022-12-01T04:16:27.293Z,37.61
2022-12-01T04:16:58.803Z,37.49
2022-12-01T04:17:30.199Z,37.81
2022-12-01T04:18:01.585Z,38.03
2022-12-01T04:18:32.990Z,37.61
2022-12-01T04:19:04.388Z,37.61
2022-12-01T04:19:35.906Z,37.87
2022-12-01T04:20:07.292Z,37.35
2022-12-01T04:20:38.678Z,37.76
2022-12-01T04:21:10.083Z,37.84
2022-12-01T04:21:41.478Z,37.46
2022-12-01T04:22:12.896Z,37.77
2022-12-01T04:22:44.282Z,37.44
2022-12-01T04:23:15.670Z,37.80
2022-12-01T04:23:47.060Z,37.39
2022-12-01T04:24:18.477Z,37.99
2022-12-01T04:24:49.948Z,37.87
2022-12-01T04:25:21.340Z,37.54
2022-12-01T04:25:52.747Z,37.62
2022-12-01T04:26:24.156Z,37.35
2022-12-01T04:26:55.546Z,37.35
2022-12-01T04:27:26.947Z,37.53
2022-12-01T04:27:58.334Z,37.38
2022-12-01T04:28:29.749Z,37.51
2022-12-01T04:29:01.139Z,37.62
2022-12-01T04:29:32.528Z,37.44
2022-12-01T04:30:04.012Z,37.46
2022-12-01T04:30:35.411Z,37.43
2022-12-01T04:31:06.878Z,37.47
2022-12-01T04:31:38.360Z,37.45
2022-12-01T04:32:09.829Z,37.60
2022-12-01T04:32:41.228Z,37.84
2022-12-01T04:33:12.617Z,37.45
2022-12-01T04:33:44.003Z,37.95
2022-12-01T04:34:15.400Z,37.52
2022-12-01T04:34:46.803Z,37.56
2022-12-01T04:35:18.284Z,37.68
2022-12-01T04:35:49.680Z,38.02
2022-12-01T04:36:21.072Z,37.86
2022-12-01T04:36:52.464Z,38.10
2022-12-01T04:37:23.860Z,37.89
2022-12-01T04:37:55.267Z,37.57
2022-12-01T04:38:30.480Z,37.69
2022-12-01T04:39:02.346Z,37.75
2022-12-01T04:39:33.734Z,37.59
2022-12-01T04:40:05.121Z,37.79
2022-12-01T04:40:36.654Z,38.09
2022-12-01T04:41:08.043Z,37.54
2022-12-01T04:41:39.457Z,37.63
2022-12-01T04:42:10.863Z,37.66
2022-12-01T04:42:42.278Z,37.42
2022-12-01T04:43:13.667Z,37.81
2022-12-01T04:43:45.091Z,37.77
2022-12-01T04:44:16.528Z,37.56
2022-12-01T04:44:47.918Z,37.91
2022-12-01T04:45:19.322Z,37.59
2022-12-01T04:45:50.809Z,37.93
2022-12-01T04:46:22.248Z,37.54
2022-12-01T04:46:53.754Z,37.60
2022-12-01T04:47:25.182Z,37.93
2022-12-01T04:47:56.596Z,37.85
2022-12-01T04:48:27.993Z,37.63
2022-12-01T04:48:59.452Z,37.89
2022-12-01T04:49:30.851Z,37.59
2022-12-01T04:50:02.261Z,37.88
2022-12-01T04:50:33.641Z,37.82
2022-12-01T04:51:05.159Z,37.42
2022-12-01T04:51:36.556Z,37.64
2022-12-01T04:52:07.948Z,37.39
2022-12-01T04:52:39.356Z,38.09
2022-12-01T04:53:10.746Z,38.11
2022-12-01T04:53:42.141Z,37.74
2022-12-01T04:54:13.533Z,37.66
2022-12-01T04:54:45.028Z,37.83
2022-12-01T04:55:16.426Z,37.90
2022-12-01T04:55:47.827Z,37.90
2022-12-01T04:56:19.319Z,37.71
2022-12-01T04:56:50.742Z,37.25
2022-12-01T04:57:22.145Z,37.80
2022-12-01T04:57:53.570Z,37.69
2022-12-01T04:58:24.964Z,37.71
2022-12-01T04:58:56.447Z,37.55
2022-12-01T04:59:27.844Z,37.69
2022-12-01T04:59:59.251Z,37.41
2022-12-01T05:00:30.710Z,37.46
2022-12-01T05:01:02.246Z,38.01
2022-12-01T05:01:33.738Z,37.88
2022-12-01T05:02:05.228Z,37.42
2022-12-01T05:02:36.703Z,37.95
2022-12-01T05:03:13.578Z,37.40
2022-12-01T05:03:46.359Z,37.38
2022-12-01T05:04:17.749Z,37.62
2022-12-01T05:04:49.145Z,37.86
2022-12-01T05:05:20.541Z,37.71
2022-12-01T05:05:51.948Z,37.78
2022-12-01T05:06:23.384Z,37.62
2022-12-01T05:06:54.778Z,37.88
2022-12-01T05:07:26.203Z,37.46
2022-12-01T05:07:57.733Z,37.35
2022-12-01T05:08:29.202Z,37.62
2022-12-01T05:09:00.593Z,37.57
2022-12-01T05:09:32.047Z,37.50
2022-12-01T05:10:03.434Z,37.38
2022-12-01T05:10:34.850Z,37.78
2022-12-01T05:11:06.259Z,37.80
2022-12-01T05:11:37.744Z,37.49
2022-12-01T05:12:09.147Z,37.95
2022-12-01T05:12:40.560Z,37.59
2022-12-01T05:13:12.058Z,37.86
2022-12-01T05:13:43.454Z,37.37
2022-12-01T05:14:14.862Z,37.47
2022-12-01T05:14:46.251Z,37.42
2022-12-01T05:15:17.635Z,37.56
2022-12-01T05:15:49.019Z,37.65
2022-12-01T05:16:20.457Z,37.75
2022-12-01T05:16:51.929Z,37.89
2022-12-01T05:17:23.334Z,37.54
2022-12-01T05:17:54.729Z,37.64
2022-12-01T05:18:26.194Z,37.29
2022-12-01T05:18:57.663Z,37.87
2022-12-01T05:19:29.080Z,37.20
2022-12-01T05:20:00.492Z,37.79
2022-12-01T05:20:31.914Z,37.15
2022-12-01T05:21:03.323Z,37.78
2022-12-01T05:21:34.718Z,37.62
2022-12-01T05:22:06.182Z,36.93
2022-12-01T05:23:04.217Z,37.80
2022-12-01T05:23:28.929Z,37.65
2022-12-01T05:24:00.324Z,37.21
2022-12-01T05:24:31.710Z,37.45
2022-12-01T05:25:03.120Z,37.06
2022-12-01T05:25:34.527Z,37.81
2022-12-01T05:26:05.934Z,37.80
2022-12-01T05:26:37.362Z,37.21
2022-12-01T05:27:08.867Z,37.42
2022-12-01T05:27:40.259Z,37.47
2022-12-01T05:28:11.657Z,37.28
2022-12-01T05:28:43.044Z,37.85
2022-12-01T05:29:14.444Z,37.88
2022-12-01T05:29:45.893Z,37.31
2022-12-01T05:30:17.339Z,37.38
2022-12-01T05:30:48.772Z,37.42
2022-12-01T05:31:20.199Z,37.65
2022-12-01T05:31:51.677Z,37.73
2022-12-01T05:32:23.236Z,37.83
2022-12-01T05:32:54.628Z,38.08
2022-12-01T05:33:26.015Z,38.15
2022-12-01T05:33:57.409Z,37.65
2022-12-01T05:34:28.795Z,37.85
2022-12-01T05:35:00.190Z,38.07
2022-12-01T05:35:31.583Z,37.91
2022-12-01T05:36:02.994Z,37.81
2022-12-01T05:36:34.383Z,37.69
2022-12-01T05:37:05.771Z,38.11
2022-12-01T05:37:37.296Z,37.92
2022-12-01T05:38:08.689Z,38.21
2022-12-01T05:38:40.096Z,38.02
2022-12-01T05:39:11.495Z,38.41
2022-12-01T05:39:42.981Z,38.07
2022-12-01T05:40:14.379Z,38.25
2022-12-01T05:40:45.767Z,38.43
2022-12-01T05:41:17.162Z,37.83
2022-12-01T05:41:48.553Z,37.87
2022-12-01T05:42:19.944Z,38.26
2022-12-01T05:42:51.495Z,38.37
2022-12-01T05:43:28.676Z,38.20
2022-12-01T05:44:00.901Z,38.46
2022-12-01T05:44:32.300Z,38.20
2022-12-01T05:45:03.696Z,37.95
2022-12-01T05:45:35.200Z,38.16
2022-12-01T05:46:06.651Z,38.33
2022-12-01T05:46:38.082Z,38.48
2022-12-01T05:47:09.470Z,37.85
2022-12-01T05:47:40.870Z,38.03
2022-12-01T05:48:12.299Z,38.26
2022-12-01T05:48:43.711Z,37.98
2022-12-01T05:49:15.113Z,38.52
2022-12-01T05:49:46.767Z,38.51
2022-12-01T05:50:18.479Z,38.08
2022-12-01T05:50:49.871Z,38.19
2022-12-01T05:51:21.272Z,38.21
2022-12-01T05:51:52.654Z,38.00
2022-12-01T05:52:24.044Z,38.46
2022-12-01T05:52:55.455Z,38.56
2022-12-01T05:53:26.961Z,38.63
2022-12-01T05:53:58.344Z,38.46
2022-12-01T05:54:29.735Z,38.54
2022-12-01T05:55:01.119Z,38.12
2022-12-01T05:55:32.516Z,38.18
2022-12-01T05:56:04.095Z,38.32
2022-12-01T05:56:35.488Z,38.36
2022-12-01T05:57:06.904Z,38.71
2022-12-01T05:57:38.353Z,38.63
2022-12-01T05:58:09.780Z,38.17
2022-12-01T05:58:41.207Z,38.53
2022-12-01T05:59:12.600Z,38.62
2022-12-01T05:59:44.009Z,38.42
2022-12-01T06:00:15.399Z,38.48
2022-12-01T06:00:46.797Z,38.24
2022-12-01T06:01:18.218Z,38.16
2022-12-01T06:01:49.672Z,38.54
2022-12-01T06:02:21.154Z,38.21
2022-12-01T06:02:52.619Z,38.53
2022-12-01T06:03:24.013Z,38.68
2022-12-01T06:03:55.575Z,38.34
2022-12-01T06:04:27.048Z,38.51
2022-12-01T06:04:58.477Z,38.48
2022-12-01T06:05:29.892Z,38.36
2022-12-01T06:06:01.278Z,38.09
2022-12-01T06:06:32.673Z,38.29
2022-12-01T06:07:04.080Z,38.61
2022-12-01T06:07:35.547Z,38.76
2022-12-01T06:08:06.974Z,38.54
2022-12-01T06:08:38.357Z,38.46
2022-12-01T06:09:09.855Z,38.32
2022-12-01T06:09:41.238Z,38.63
2022-12-01T06:10:12.627Z,38.32
2022-12-01T06:10:44.020Z,38.11
2022-12-01T06:11:15.413Z,38.52
2022-12-01T06:11:50.109Z,38.02
2022-12-01T06:12:23.853Z,38.03
2022-12-01T06:12:55.244Z,38.27
2022-12-01T06:13:26.626Z,38.45
2022-12-01T06:13:58.106Z,38.34
2022-12-01T06:14:29.499Z,38.38
2022-12-01T06:15:00.887Z,38.16
2022-12-01T06:15:32.278Z,38.42
2022-12-01T06:16:03.666Z,38.21
2022-12-01T06:16:35.133Z,38.13
2022-12-01T06:17:06.570Z,38.51
2022-12-01T06:17:40.457Z,38.12
2022-12-01T06:18:12.007Z,38.23
2022-12-01T06:18:43.398Z,38.38
2022-12-01T06:19:14.935Z,38.14
2022-12-01T06:19:46.461Z,38.37
2022-12-01T06:20:18.015Z,38.20
2022-12-01T06:20:49.426Z,38.48
2022-12-01T06:21:20.815Z,38.09
2022-12-01T06:21:52.230Z,38.26
2022-12-01T06:22:23.626Z,38.22
2022-12-01T06:22:55.022Z,38.09
2022-12-01T06:23:30.153Z,38.44
2022-12-01T06:24:02.171Z,38.65
2022-12-01T06:24:33.565Z,38.60
2022-12-01T06:25:04.960Z,38.78
2022-12-01T06:25:36.374Z,38.74
2022-12-01T06:26:07.783Z,38.58
2022-12-01T06:26:39.173Z,38.08
2022-12-01T06:27:10.572Z,38.46
2022-12-01T06:27:41.965Z,38.40
2022-12-01T06:28:13.354Z,38.29
2022-12-01T06:28:44.745Z,37.95
2022-12-01T06:29:16.228Z,38.13
2022-12-01T06:29:47.613Z,37.91
2022-12-01T06:30:19.035Z,38.28
2022-12-01T06:30:50.451Z,38.13
2022-12-01T06:31:21.928Z,37.99
2022-12-01T06:31:53.408Z,38.39
2022-12-01T06:32:24.821Z,38.10
2022-12-01T06:32:56.233Z,37.98
2022-12-01T06:33:27.623Z,38.40
2022-12-01T06:33:59.014Z,38.56
2022-12-01T06:34:30.470Z,38.35
2022-12-01T06:35:01.869Z,38.43
2022-12-01T06:35:33.265Z,38.09
2022-12-01T06:36:04.976Z,38.42
2022-12-01T06:36:36.620Z,38.03
2022-12-01T06:37:08.009Z,38.10
2022-12-01T06:37:39.404Z,37.91
2022-12-01T06:38:10.824Z,37.85
2022-12-01T06:38:42.206Z,38.04
2022-12-01T06:39:13.595Z,38.37
2022-12-01T06:39:45.067Z,38.01
2022-12-01T06:40:16.461Z,38.17
2022-12-01T06:40:47.859Z,38.19
2022-12-01T06:41:19.264Z,38.12
2022-12-01T06:41:50.671Z,37.86
2022-12-01T06:42:22.059Z,38.35
2022-12-01T06:42:53.450Z,38.16
2022-12-01T06:43:24.843Z,38.46
2022-12-01T06:43:56.263Z,38.04
2022-12-01T06:44:27.647Z,38.23
2022-12-01T06:44:59.108Z,38.35
2022-12-01T06:45:30.543Z,38.07
2022-12-01T06:46:02.562Z,38.49